createdAt,value
2019-04-25T00:02:36.778Z,50.60
2019-04-25T00:05:11.223Z,50.60
2019-04-25T00:07:43.034Z,50.70
2019-04-25T00:10:14.650Z,50.90
2019-04-25T00:12:44.630Z,51.20
2019-04-25T00:15:14.434Z,51.00
2019-04-25T00:17:44.478Z,51.30
2019-04-25T00:20:15.069Z,51.50
2019-04-25T00:22:46.980Z,51.30
2019-04-25T00:25:36.603Z,51.50
2019-04-25T00:28:08.153Z,51.60
2019-04-25T00:30:37.984Z,51.70
2019-04-25T00:33:07.867Z,51.80
2019-04-25T00:35:37.689Z,51.90
2019-04-25T00:38:08.377Z,52.20
2019-04-25T00:40:38.246Z,52.10
2019-04-25T00:43:08.021Z,52.20
2019-04-25T00:45:37.888Z,52.40
2019-04-25T00:48:07.765Z,53.10
2019-04-25T00:50:37.874Z,53.50
2019-04-25T00:53:08.388Z,53.40
2019-04-25T00:55:38.172Z,53.20
2019-04-25T00:58:15.979Z,53.30
2019-04-25T01:00:47.539Z,53.20
2019-04-25T01:03:19.074Z,53.50
2019-04-25T01:05:49.618Z,53.70
2019-04-25T01:08:19.738Z,53.80
2019-04-25T01:10:50.400Z,54.10
2019-04-25T01:13:22.323Z,54.20
2019-04-25T01:15:53.743Z,54.30
2019-04-25T01:18:25.110Z,54.40
2019-04-25T01:20:55.490Z,54.30
2019-04-25T01:23:25.293Z,54.50
2019-04-25T01:25:55.855Z,54.40
2019-04-25T01:28:26.854Z,54.60
2019-04-25T01:30:56.627Z,54.50
2019-04-25T01:33:27.916Z,54.50
2019-04-25T01:36:03.281Z,54.40
2019-04-25T01:38:47.662Z,54.50
2019-04-25T01:41:31.171Z,54.80
2019-04-25T01:44:05.401Z,54.70
2019-04-25T01:46:37.017Z,54.90
2019-04-25T01:49:06.843Z,54.90
2019-04-25T01:51:36.619Z,55.10
2019-04-25T01:54:06.425Z,55.50
2019-04-25T01:56:36.454Z,55.60
2019-04-25T01:59:06.234Z,55.80
2019-04-25T02:01:37.481Z,55.50
2019-04-25T02:04:07.293Z,55.80
2019-04-25T02:06:37.275Z,55.50
2019-04-25T02:09:09.413Z,55.90
2019-04-25T02:11:40.937Z,55.90
2019-04-25T02:14:10.761Z,56.50
2019-04-25T02:16:40.806Z,56.10
2019-04-25T02:19:10.715Z,56.20
2019-04-25T02:21:40.590Z,56.30
2019-04-25T02:24:11.394Z,56.50
2019-04-25T02:26:41.169Z,56.50
2019-04-25T02:29:11.146Z,56.80
2019-04-25T02:31:40.923Z,57.10
2019-04-25T02:34:11.447Z,56.80
2019-04-25T02:36:41.206Z,56.80
2019-04-25T02:39:17.732Z,57.00
2019-04-25T02:41:47.610Z,57.30
2019-04-25T02:44:17.474Z,57.20
2019-04-25T02:47:00.526Z,57.60
2019-04-25T02:49:38.863Z,58.00
2019-04-25T02:52:09.730Z,58.10
2019-04-25T02:54:38.458Z,57.80
2019-04-25T02:57:08.402Z,57.70
2019-04-25T02:59:38.171Z,57.90
2019-04-25T03:02:09.211Z,58.50
2019-04-25T03:04:40.208Z,58.30
2019-04-25T03:07:11.241Z,58.60
2019-04-25T03:09:41.692Z,59.30
2019-04-25T03:12:25.440Z,59.80
2019-04-25T03:14:44.641Z,60.10
2019-04-25T03:17:14.633Z,60.50
2019-04-25T03:20:06.513Z,60.30
2019-04-25T03:22:34.915Z,60.50
2019-04-25T03:25:10.780Z,60.50
2019-04-25T03:27:37.929Z,61.40
2019-04-25T03:30:13.018Z,61.80
2019-04-25T03:32:39.955Z,61.30
2019-04-25T03:35:10.915Z,60.90
2019-04-25T03:37:43.619Z,61.10
2019-04-25T03:40:14.050Z,61.00
2019-04-25T03:42:43.994Z,60.60
2019-04-25T03:45:14.860Z,61.30
2019-04-25T03:47:44.778Z,60.70
2019-04-25T03:50:14.621Z,60.50
2019-04-25T03:52:44.390Z,60.70
2019-04-25T03:55:14.627Z,60.80
2019-04-25T03:57:44.472Z,61.00
2019-04-25T04:00:15.174Z,60.90
2019-04-25T04:02:45.117Z,61.40
2019-04-25T04:05:15.094Z,61.70
2019-04-25T04:07:45.981Z,61.60
2019-04-25T04:10:15.777Z,62.00
2019-04-25T04:12:45.778Z,62.10
2019-04-25T04:15:16.333Z,62.50
2019-04-25T04:17:47.785Z,62.60
2019-04-25T04:20:19.242Z,62.40
2019-04-25T04:22:50.645Z,62.50
2019-04-25T04:25:23.626Z,63.00
2019-04-25T04:27:53.850Z,62.60
2019-04-25T04:30:24.377Z,63.10
2019-04-25T04:32:54.206Z,63.30
2019-04-25T04:35:24.025Z,63.00
2019-04-25T04:37:54.245Z,63.20
2019-04-25T04:40:24.375Z,63.50
2019-04-25T04:42:55.233Z,64.00
2019-04-25T04:45:25.190Z,63.90
2019-04-25T04:47:54.986Z,64.10
2019-04-25T04:50:25.603Z,64.50
2019-04-25T04:52:56.261Z,64.90
2019-04-25T04:55:26.757Z,64.50
2019-04-25T04:57:56.658Z,63.30
2019-04-25T05:00:28.073Z,62.60
2019-04-25T05:03:10.335Z,62.10
2019-04-25T05:05:43.976Z,61.80
2019-04-25T05:08:17.249Z,61.00
2019-04-25T05:10:47.066Z,59.70
2019-04-25T05:13:17.985Z,58.60
2019-04-25T05:15:48.555Z,57.40
2019-04-25T05:18:33.011Z,55.60
2019-04-25T05:20:51.189Z,54.50
2019-04-25T05:23:21.052Z,53.60
2019-04-25T05:25:50.929Z,53.30
2019-04-25T05:28:21.011Z,53.00
2019-04-25T05:30:58.542Z,52.20
2019-04-25T05:33:28.474Z,51.80
2019-04-25T05:35:58.270Z,51.30
2019-04-25T05:38:28.075Z,51.00
2019-04-25T05:41:00.285Z,50.60
2019-04-25T05:43:30.143Z,50.10
2019-04-25T05:46:00.113Z,49.60
2019-04-25T05:48:29.964Z,49.10
2019-04-25T05:51:00.002Z,48.50
2019-04-25T05:53:30.106Z,47.70
2019-04-25T05:55:59.929Z,46.90
2019-04-25T05:58:29.742Z,45.80
2019-04-25T06:01:00.513Z,45.20
2019-04-25T06:03:30.338Z,44.40
2019-04-25T06:06:00.146Z,43.20
2019-04-25T06:08:31.606Z,41.70
2019-04-25T06:11:15.113Z,40.60
2019-04-25T06:13:46.577Z,39.90
2019-04-25T06:16:18.556Z,38.30
2019-04-25T06:18:50.773Z,37.60
2019-04-25T06:21:21.397Z,36.20
2019-04-25T06:24:11.446Z,36.20
2019-04-25T06:26:50.237Z,35.60
2019-04-25T06:29:20.525Z,34.50
2019-04-25T06:31:50.654Z,34.30
2019-04-25T06:34:21.377Z,34.00
2019-04-25T06:36:51.280Z,33.50
2019-04-25T06:39:21.985Z,33.20
2019-04-25T06:41:51.868Z,32.90
2019-04-25T06:44:29.408Z,32.20
2019-04-25T06:47:00.883Z,31.80
2019-04-25T06:49:37.976Z,31.20
2019-04-25T06:52:08.134Z,30.70
2019-04-25T06:54:38.007Z,30.30
2019-04-25T06:57:07.802Z,30.10
2019-04-25T06:59:41.255Z,29.30
2019-04-25T07:02:10.059Z,28.80
2019-04-25T07:04:40.558Z,28.10
2019-04-25T07:07:14.360Z,27.70
2019-04-25T07:09:43.359Z,27.20
2019-04-25T07:12:13.579Z,26.80
2019-04-25T07:14:44.007Z,26.30
2019-04-25T07:17:14.396Z,26.20
2019-04-25T07:19:45.304Z,25.90
2019-04-25T07:22:15.509Z,25.40
2019-04-25T07:24:46.485Z,25.70
2019-04-25T07:27:21.432Z,25.40
2019-04-25T07:29:53.887Z,25.10
2019-04-25T07:32:30.167Z,24.70
2019-04-25T07:35:00.005Z,24.80
2019-04-25T07:37:29.905Z,24.40
2019-04-25T07:40:00.560Z,24.10
2019-04-25T07:42:31.954Z,24.00
2019-04-25T07:45:01.882Z,23.60
2019-04-25T07:47:31.845Z,23.60
2019-04-25T07:50:01.825Z,23.70
2019-04-25T07:52:33.281Z,23.20
2019-04-25T07:55:03.792Z,22.00
2019-04-25T07:57:34.922Z,22.60
2019-04-25T08:00:14.793Z,22.80
2019-04-25T08:02:45.066Z,22.60
2019-04-25T08:05:18.073Z,21.50
2019-04-25T08:07:47.958Z,21.80
2019-04-25T08:10:19.266Z,21.80
2019-04-25T08:12:49.086Z,21.40
2019-04-25T08:15:36.270Z,21.50
2019-04-25T08:18:08.098Z,21.50
2019-04-25T08:20:38.027Z,21.30
2019-04-25T08:23:08.026Z,20.90
2019-04-25T08:25:39.625Z,20.80
2019-04-25T08:28:09.569Z,20.80
2019-04-25T08:30:39.445Z,20.80
2019-04-25T08:33:09.273Z,21.30
2019-04-25T08:35:39.227Z,21.20
2019-04-25T08:38:09.082Z,21.70
2019-04-25T08:40:39.328Z,20.70
2019-04-25T08:43:10.062Z,19.70
2019-04-25T08:45:39.882Z,19.10
2019-04-25T08:48:09.881Z,18.90
2019-04-25T08:50:58.959Z,19.00
2019-04-25T08:53:32.781Z,18.70
2019-04-25T08:56:06.789Z,18.80
2019-04-25T08:59:03.339Z,18.20
2019-04-25T09:01:29.071Z,18.40
2019-04-25T09:04:19.282Z,18.50
2019-04-25T09:06:49.105Z,18.70
2019-04-25T09:09:19.105Z,18.10
2019-04-25T09:11:48.946Z,18.10
2019-04-25T09:14:18.792Z,18.60
2019-04-25T09:16:48.577Z,18.30
2019-04-25T09:19:18.540Z,18.40
2019-04-25T09:21:49.656Z,18.70
2019-04-25T09:24:19.494Z,18.50
2019-04-25T09:26:49.465Z,17.90
2019-04-25T09:29:20.035Z,18.10
2019-04-25T09:31:50.977Z,18.20
2019-04-25T09:34:20.807Z,17.80
2019-04-25T09:36:50.757Z,18.00
2019-04-25T09:39:23.661Z,17.70
2019-04-25T09:41:53.752Z,18.10
2019-04-25T09:44:30.893Z,17.70
2019-04-25T09:47:00.862Z,17.50
2019-04-25T09:49:33.880Z,17.90
2019-04-25T09:52:06.529Z,17.90
2019-04-25T09:54:42.378Z,17.70
2019-04-25T09:57:26.961Z,18.40
2019-04-25T09:59:56.861Z,18.60
2019-04-25T10:02:26.818Z,19.00
2019-04-25T10:04:57.006Z,19.00
2019-04-25T10:07:26.889Z,19.30
2019-04-25T10:09:57.175Z,19.50
2019-04-25T10:12:27.293Z,20.20
2019-04-25T10:15:18.435Z,20.20
2019-04-25T10:17:48.325Z,20.60
2019-04-25T10:20:18.971Z,21.00
2019-04-25T10:22:48.776Z,21.10
2019-04-25T10:25:19.069Z,21.40
2019-04-25T10:27:49.346Z,21.80
2019-04-25T10:30:23.331Z,22.00
2019-04-25T10:32:51.171Z,22.00
2019-04-25T10:35:20.984Z,22.20
2019-04-25T10:37:50.942Z,22.40
2019-04-25T10:40:23.454Z,22.50
2019-04-25T10:42:53.383Z,22.40
2019-04-25T10:45:25.809Z,22.60
2019-04-25T10:47:56.417Z,22.70
2019-04-25T10:50:26.357Z,22.50
2019-04-25T10:52:56.240Z,22.60
2019-04-25T10:55:26.047Z,22.60
2019-04-25T10:57:56.391Z,22.90
2019-04-25T11:00:28.717Z,23.10
2019-04-25T11:03:00.194Z,22.70
2019-04-25T11:05:30.163Z,22.60
2019-04-25T11:07:59.989Z,22.70
2019-04-25T11:10:29.897Z,22.60
2019-04-25T11:12:59.938Z,22.40
2019-04-25T11:15:29.911Z,22.00
2019-04-25T11:18:00.569Z,21.80
2019-04-25T11:20:33.693Z,22.00
2019-04-25T11:23:03.935Z,21.90
2019-04-25T11:25:34.201Z,22.10
2019-04-25T11:28:07.228Z,22.10
2019-04-25T11:30:37.206Z,22.20
2019-04-25T11:33:08.985Z,22.30
2019-04-25T11:35:38.814Z,22.80
2019-04-25T11:38:10.310Z,23.00
2019-04-25T11:40:54.937Z,22.80
2019-04-25T11:43:24.082Z,23.10
2019-04-25T11:45:55.772Z,22.80
2019-04-25T11:48:25.634Z,22.80
2019-04-25T11:50:56.576Z,22.60
2019-04-25T11:53:26.573Z,23.00
2019-04-25T11:55:57.226Z,22.70
2019-04-25T11:58:27.216Z,22.70
2019-04-25T12:00:57.988Z,22.90
2019-04-25T12:03:29.050Z,22.60
2019-04-25T12:05:58.885Z,22.30
2019-04-25T12:08:28.713Z,22.30
2019-04-25T12:10:58.572Z,22.40
2019-04-25T12:13:28.418Z,22.00
2019-04-25T12:15:58.551Z,22.20
2019-04-25T12:18:28.413Z,22.10
2019-04-25T12:20:58.391Z,22.30
2019-04-25T12:23:28.286Z,21.80
2019-04-25T12:25:58.494Z,22.00
2019-04-25T12:28:29.090Z,22.20
2019-04-25T12:30:59.025Z,22.40
2019-04-25T12:33:29.010Z,22.50
2019-04-25T12:35:58.837Z,22.10
2019-04-25T12:38:28.661Z,22.10
2019-04-25T12:40:58.553Z,22.70
2019-04-25T12:43:30.093Z,21.90
2019-04-25T12:46:04.190Z,22.20
2019-04-25T12:48:34.145Z,22.60
2019-04-25T12:51:04.379Z,22.70
2019-04-25T12:53:35.126Z,22.80
2019-04-25T12:56:05.093Z,22.40
2019-04-25T12:58:34.926Z,22.30
2019-04-25T13:01:05.770Z,22.50
2019-04-25T13:03:35.717Z,22.30
2019-04-25T13:06:05.609Z,21.90
2019-04-25T13:08:35.507Z,22.10
2019-04-25T13:11:08.642Z,22.30
2019-04-25T13:13:37.023Z,22.20
2019-04-25T13:16:07.728Z,22.30
2019-04-25T13:18:37.521Z,22.20
2019-04-25T13:21:07.761Z,22.20
2019-04-25T13:23:38.474Z,22.30
2019-04-25T13:26:08.389Z,22.30
2019-04-25T13:28:59.008Z,22.00
2019-04-25T13:31:36.263Z,21.90
2019-04-25T13:34:07.875Z,21.90
2019-04-25T13:36:37.844Z,22.20
2019-04-25T13:39:12.830Z,22.00
2019-04-25T13:41:44.823Z,22.00
2019-04-25T13:44:14.694Z,21.90
2019-04-25T13:46:44.568Z,22.10
2019-04-25T13:49:14.646Z,22.00
2019-04-25T13:51:44.465Z,21.90
2019-04-25T13:54:14.835Z,21.90
2019-04-25T13:56:45.281Z,22.20
2019-04-25T13:59:15.140Z,22.10
2019-04-25T14:01:45.417Z,22.00
2019-04-25T14:04:15.577Z,22.00
2019-04-25T14:06:45.456Z,21.90
2019-04-25T14:09:16.821Z,21.90
2019-04-25T14:11:46.859Z,22.30
2019-04-25T14:14:17.546Z,22.50
2019-04-25T14:16:49.178Z,22.70
2019-04-25T14:19:25.790Z,22.80
2019-04-25T14:21:57.594Z,22.60
2019-04-25T14:24:30.507Z,21.70
2019-04-25T14:26:59.040Z,21.40
2019-04-25T14:29:28.918Z,20.70
2019-04-25T14:31:58.986Z,20.90
2019-04-25T14:34:29.857Z,20.80
2019-04-25T14:36:59.670Z,20.50
2019-04-25T14:39:30.362Z,20.40
2019-04-25T14:42:00.231Z,20.70
2019-04-25T14:44:30.050Z,20.70
2019-04-25T14:47:00.140Z,20.60
2019-04-25T14:49:30.502Z,20.50
2019-04-25T14:52:00.552Z,20.80
2019-04-25T14:54:47.171Z,21.20
2019-04-25T14:57:21.863Z,21.30
2019-04-25T14:59:52.850Z,21.30
2019-04-25T15:02:23.784Z,21.30
2019-04-25T15:04:53.711Z,21.10
2019-04-25T15:07:24.425Z,21.10
2019-04-25T15:09:54.365Z,21.40
2019-04-25T15:12:24.759Z,21.50
2019-04-25T15:14:54.661Z,21.60
2019-04-25T15:17:24.578Z,21.50
2019-04-25T15:19:55.129Z,21.70
2019-04-25T15:22:25.674Z,21.80
2019-04-25T15:24:55.572Z,21.80
2019-04-25T15:27:26.430Z,21.90
2019-04-25T15:29:56.334Z,22.10
2019-04-25T15:32:27.785Z,21.90
2019-04-25T15:34:59.241Z,22.10
2019-04-25T15:37:34.871Z,22.30
2019-04-25T15:40:08.550Z,22.10
2019-04-25T15:42:56.307Z,22.30
2019-04-25T15:45:43.070Z,22.30
2019-04-25T15:48:12.933Z,22.20
2019-04-25T15:50:43.201Z,22.30
2019-04-25T15:53:13.802Z,21.90
2019-04-25T15:55:43.728Z,21.70
2019-04-25T15:58:13.582Z,21.60
2019-04-25T16:00:43.456Z,21.80
2019-04-25T16:03:14.523Z,22.20
2019-04-25T16:05:44.425Z,22.00
2019-04-25T16:08:15.244Z,21.80
2019-04-25T16:10:45.414Z,21.70
2019-04-25T16:13:15.256Z,21.80
2019-04-25T16:15:45.146Z,22.10
2019-04-25T16:18:15.105Z,22.20
2019-04-25T16:20:45.890Z,22.20
2019-04-25T16:23:16.249Z,22.20
2019-04-25T16:25:46.078Z,22.20
2019-04-25T16:28:15.977Z,22.30
2019-04-25T16:30:46.913Z,22.50
2019-04-25T16:33:16.721Z,22.60
2019-04-25T16:35:46.497Z,22.60
2019-04-25T16:38:16.826Z,22.60
2019-04-25T16:40:46.595Z,22.60
2019-04-25T16:43:18.138Z,22.70
2019-04-25T16:45:47.911Z,22.80
2019-04-25T16:48:17.721Z,22.80
2019-04-25T16:50:47.621Z,22.60
2019-04-25T16:53:17.528Z,22.70
2019-04-25T16:55:47.288Z,22.60
2019-04-25T16:58:17.119Z,22.60
2019-04-25T17:00:49.302Z,22.50
2019-04-25T17:03:20.906Z,22.70
2019-04-25T17:05:50.672Z,22.90
2019-04-25T17:08:20.609Z,22.90
2019-04-25T17:10:50.445Z,23.00
2019-04-25T17:13:20.390Z,23.00
2019-04-25T17:15:57.603Z,23.20
2019-04-25T17:18:29.734Z,23.30
2019-04-25T17:21:04.722Z,23.30
2019-04-25T17:23:34.568Z,23.40
2019-04-25T17:26:05.982Z,23.40
2019-04-25T17:28:37.725Z,23.40
2019-04-25T17:31:19.314Z,23.60
2019-04-25T17:34:06.901Z,23.60
2019-04-25T17:36:39.413Z,23.70
2019-04-25T17:39:10.849Z,23.80
2019-04-25T17:41:41.206Z,24.00
2019-04-25T17:44:10.968Z,24.20
2019-04-25T17:46:40.751Z,24.40
2019-04-25T17:49:12.893Z,24.40
2019-04-25T17:51:42.057Z,24.40
2019-04-25T17:54:11.966Z,24.60
2019-04-25T17:56:41.782Z,24.60
2019-04-25T17:59:11.583Z,24.60
2019-04-25T18:01:42.202Z,24.60
2019-04-25T18:04:13.170Z,24.70
2019-04-25T18:06:44.303Z,24.90
2019-04-25T18:09:14.223Z,25.00
2019-04-25T18:11:45.302Z,25.30
2019-04-25T18:14:15.445Z,25.40
2019-04-25T18:16:47.045Z,25.50
2019-04-25T18:19:21.275Z,25.60
2019-04-25T18:21:51.126Z,25.60
2019-04-25T18:24:39.094Z,25.70
2019-04-25T18:27:10.801Z,25.80
2019-04-25T18:29:41.555Z,25.70
2019-04-25T18:32:11.449Z,25.70
2019-04-25T18:34:46.499Z,25.70
2019-04-25T18:37:24.509Z,25.80
2019-04-25T18:39:56.066Z,25.80
2019-04-25T18:42:44.538Z,25.80
2019-04-25T18:45:18.929Z,25.90
2019-04-25T18:47:48.890Z,25.90
2019-04-25T18:50:20.306Z,26.00
2019-04-25T18:52:54.673Z,26.10
2019-04-25T18:55:31.969Z,26.10
2019-04-25T18:58:19.705Z,26.20
2019-04-25T19:01:03.026Z,26.30
2019-04-25T19:03:35.426Z,26.40
2019-04-25T19:06:09.978Z,26.50
2019-04-25T19:08:40.890Z,26.60
2019-04-25T19:11:10.717Z,26.70
2019-04-25T19:13:41.064Z,26.90
2019-04-25T19:16:10.962Z,27.20
2019-04-25T19:18:41.452Z,27.40
2019-04-25T19:21:12.224Z,27.50
2019-04-25T19:23:42.050Z,27.80
2019-04-25T19:26:12.001Z,28.10
2019-04-25T19:28:42.710Z,28.60
2019-04-25T19:31:12.613Z,28.70
2019-04-25T19:33:43.281Z,29.00
2019-04-25T19:36:13.424Z,29.50
2019-04-25T19:38:43.938Z,29.60
2019-04-25T19:41:28.354Z,29.70
2019-04-25T19:44:02.637Z,29.90
2019-04-25T19:46:38.300Z,29.90
2019-04-25T19:49:08.457Z,30.00
2019-04-25T19:51:38.230Z,30.00
2019-04-25T19:54:08.001Z,30.10
2019-04-25T19:56:37.892Z,30.50
2019-04-25T19:59:07.789Z,30.70
2019-04-25T20:01:37.698Z,30.90
2019-04-25T20:04:09.418Z,31.00
2019-04-25T20:06:40.857Z,31.30
2019-04-25T20:09:18.052Z,31.50
2019-04-25T20:11:49.515Z,31.90
2019-04-25T20:14:19.405Z,31.90
2019-04-25T20:16:49.666Z,32.40
2019-04-25T20:19:19.818Z,32.60
2019-04-25T20:21:50.029Z,32.90
2019-04-25T20:24:19.966Z,33.10
2019-04-25T20:26:50.458Z,33.50
2019-04-25T20:29:20.284Z,34.20
2019-04-25T20:31:50.671Z,34.30
2019-04-25T20:34:20.505Z,34.00
2019-04-25T20:36:51.545Z,34.40
2019-04-25T20:39:21.425Z,34.60
2019-04-25T20:41:51.927Z,34.60
2019-04-25T20:44:21.754Z,34.70
2019-04-25T20:46:52.602Z,34.70
2019-04-25T20:49:22.401Z,34.90
2019-04-25T20:51:52.628Z,35.10
2019-04-25T20:54:22.410Z,35.00
2019-04-25T20:56:53.005Z,35.00
2019-04-25T20:59:22.847Z,35.20
2019-04-25T21:01:53.601Z,35.10
2019-04-25T21:04:41.481Z,35.10
2019-04-25T21:07:11.416Z,35.10
2019-04-25T21:09:41.226Z,35.40
2019-04-25T21:12:11.056Z,35.40
2019-04-25T21:14:43.027Z,35.60
2019-04-25T21:17:30.365Z,35.50
2019-04-25T21:20:01.138Z,35.40
2019-04-25T21:22:30.910Z,35.70
2019-04-25T21:25:00.720Z,35.80
2019-04-25T21:27:30.601Z,36.10
2019-04-25T21:30:00.425Z,36.40
2019-04-25T21:32:32.091Z,36.30
2019-04-25T21:35:03.070Z,36.20
2019-04-25T21:37:33.049Z,36.20
2019-04-25T21:40:11.900Z,36.30
2019-04-25T21:42:43.653Z,36.50
2019-04-25T21:45:13.957Z,37.10
2019-04-25T21:47:43.788Z,37.00
2019-04-25T21:50:14.199Z,37.10
2019-04-25T21:52:44.421Z,37.30
2019-04-25T21:55:14.481Z,37.30
2019-04-25T21:57:44.481Z,37.50
2019-04-25T22:00:17.285Z,37.50
2019-04-25T22:02:48.872Z,37.50
2019-04-25T22:05:18.904Z,37.80
2019-04-25T22:07:49.073Z,38.30
2019-04-25T22:10:19.066Z,38.20
2019-04-25T22:12:48.881Z,38.20
2019-04-25T22:15:18.931Z,38.30
2019-04-25T22:17:48.936Z,38.30
2019-04-25T22:20:18.799Z,38.80
2019-04-25T22:22:48.690Z,39.20
2019-04-25T22:25:18.561Z,39.10
2019-04-25T22:27:49.756Z,39.00
2019-04-25T22:30:20.455Z,39.20
2019-04-25T22:32:58.631Z,39.40
2019-04-25T22:35:40.109Z,39.40
2019-04-25T22:38:10.206Z,39.40
2019-04-25T22:40:40.037Z,39.60
2019-04-25T22:43:12.063Z,39.80
2019-04-25T22:45:42.192Z,40.10
2019-04-25T22:48:12.023Z,40.00
2019-04-25T22:50:42.064Z,39.90
2019-04-25T22:53:21.506Z,39.90
2019-04-25T22:55:43.405Z,40.00
2019-04-25T22:58:13.230Z,40.00
2019-04-25T23:00:43.126Z,40.10
2019-04-25T23:03:18.822Z,40.20
2019-04-25T23:05:53.758Z,40.20
2019-04-25T23:08:23.933Z,40.10
2019-04-25T23:10:53.752Z,40.60
2019-04-25T23:13:24.620Z,40.90
2019-04-25T23:15:54.458Z,41.10
2019-04-25T23:18:24.662Z,41.10
2019-04-25T23:20:54.509Z,41.20
2019-04-25T23:23:24.637Z,41.30
2019-04-25T23:25:56.093Z,41.50
2019-04-25T23:28:28.065Z,41.80
2019-04-25T23:31:00.719Z,42.30
2019-04-25T23:33:30.522Z,42.40
2019-04-25T23:36:00.781Z,42.30
2019-04-25T23:38:30.596Z,42.10
2019-04-25T23:41:00.530Z,42.30
2019-04-25T23:43:30.314Z,42.20
2019-04-25T23:46:00.201Z,42.10
2019-04-25T23:48:30.252Z,42.00
2019-04-25T23:51:01.137Z,42.00
2019-04-25T23:53:31.889Z,41.70
2019-04-25T23:56:02.536Z,41.90
2019-04-25T23:58:32.429Z,42.10
